sensor_id;sensor_type;location;lat;lon;timestamp;temperature;humidity
21047;DHT22;10682;50.874;3.656;2023-12-04T00:01:17;2.70;99.90
21047;DHT22;10682;50.874;3.656;2023-12-04T00:03:45;2.70;99.90
21047;DHT22;10682;50.874;3.656;2023-12-04T00:06:12;2.60;99.90
21047;DHT22;10682;50.874;3.656;2023-12-04T00:08:40;2.60;99.90
21047;DHT22;10682;50.874;3.656;2023-12-04T00:11:07;2.60;99.90
21047;DHT22;10682;50.874;3.656;2023-12-04T00:13:34;2.60;99.90
21047;DHT22;10682;50.874;3.656;2023-12-04T00:16:02;2.60;99.90
21047;DHT22;10682;50.874;3.656;2023-12-04T00:18:29;2.60;99.90
21047;DHT22;10682;50.874;3.656;2023-12-04T00:20:57;2.70;99.90
21047;DHT22;10682;50.874;3.656;2023-12-04T00:23:24;2.70;99.90
21047;DHT22;10682;50.874;3.656;2023-12-04T00:25:51;2.70;99.90
21047;DHT22;10682;50.874;3.656;2023-12-04T00:28:18;2.70;99.90
21047;DHT22;10682;50.874;3.656;2023-12-04T00:30:46;2.80;99.90
21047;DHT22;10682;50.874;3.656;2023-12-04T00:33:13;2.80;99.90
21047;DHT22;10682;50.874;3.656;2023-12-04T00:35:40;2.90;99.90
21047;DHT22;10682;50.874;3.656;2023-12-04T00:38:07;2.90;99.90
21047;DHT22;10682;50.874;3.656;2023-12-04T00:40:34;2.90;99.90
21047;DHT22;10682;50.874;3.656;2023-12-04T00:43:01;3.00;99.90
21047;DHT22;10682;50.874;3.656;2023-12-04T00:45:29;3.00;99.90
21047;DHT22;10682;50.874;3.656;2023-12-04T00:47:56;3.00;99.90
21047;DHT22;10682;50.874;3.656;2023-12-04T00:50:24;3.10;99.90
21047;DHT22;10682;50.874;3.656;2023-12-04T00:52:51;3.10;99.90
21047;DHT22;10682;50.874;3.656;2023-12-04T00:55:18;3.10;99.90
21047;DHT22;10682;50.874;3.656;2023-12-04T00:57:46;3.20;99.90
21047;DHT22;10682;50.874;3.656;2023-12-04T01:00:13;3.20;99.90
21047;DHT22;10682;50.874;3.656;2023-12-04T01:02:41;3.20;99.90
21047;DHT22;10682;50.874;3.656;2023-12-04T01:05:08;3.20;99.90
21047;DHT22;10682;50.874;3.656;2023-12-04T01:07:35;3.30;99.90
21047;DHT22;10682;50.874;3.656;2023-12-04T01:10:03;3.30;99.90
21047;DHT22;10682;50.874;3.656;2023-12-04T01:12:31;3.30;99.90
21047;DHT22;10682;50.874;3.656;2023-12-04T01:14:58;3.30;99.90
21047;DHT22;10682;50.874;3.656;2023-12-04T01:17:25;3.20;99.90
21047;DHT22;10682;50.874;3.656;2023-12-04T01:19:53;3.10;99.90
21047;DHT22;10682;50.874;3.656;2023-12-04T01:22:20;3.10;99.90
21047;DHT22;10682;50.874;3.656;2023-12-04T01:24:47;3.10;99.90
21047;DHT22;10682;50.874;3.656;2023-12-04T01:27:14;3.10;99.90
21047;DHT22;10682;50.874;3.656;2023-12-04T01:29:41;3.10;99.90
21047;DHT22;10682;50.874;3.656;2023-12-04T01:32:08;3.20;99.90
21047;DHT22;10682;50.874;3.656;2023-12-04T01:34:36;3.20;99.90
21047;DHT22;10682;50.874;3.656;2023-12-04T01:37:03;3.20;99.90
21047;DHT22;10682;50.874;3.656;2023-12-04T01:39:30;3.20;99.90
21047;DHT22;10682;50.874;3.656;2023-12-04T01:41:57;3.20;99.90
21047;DHT22;10682;50.874;3.656;2023-12-04T01:44:25;3.10;99.90
21047;DHT22;10682;50.874;3.656;2023-12-04T01:46:52;3.20;99.90
21047;DHT22;10682;50.874;3.656;2023-12-04T01:49:19;3.20;99.90
21047;DHT22;10682;50.874;3.656;2023-12-04T01:51:46;3.20;99.90
21047;DHT22;10682;50.874;3.656;2023-12-04T01:54:14;3.20;99.90
21047;DHT22;10682;50.874;3.656;2023-12-04T01:56:41;3.10;99.90
21047;DHT22;10682;50.874;3.656;2023-12-04T01:59:08;3.10;99.90
21047;DHT22;10682;50.874;3.656;2023-12-04T02:01:36;3.10;99.90
21047;DHT22;10682;50.874;3.656;2023-12-04T02:04:04;3.00;99.90
21047;DHT22;10682;50.874;3.656;2023-12-04T02:06:31;3.00;99.90
21047;DHT22;10682;50.874;3.656;2023-12-04T02:08:59;3.00;99.90
21047;DHT22;10682;50.874;3.656;2023-12-04T02:11:26;3.00;99.90
21047;DHT22;10682;50.874;3.656;2023-12-04T02:13:53;2.90;99.90
21047;DHT22;10682;50.874;3.656;2023-12-04T02:16:23;3.00;99.90
21047;DHT22;10682;50.874;3.656;2023-12-04T02:18:53;3.00;99.90
21047;DHT22;10682;50.874;3.656;2023-12-04T02:21:20;3.00;99.90
21047;DHT22;10682;50.874;3.656;2023-12-04T02:23:49;3.00;99.90
21047;DHT22;10682;50.874;3.656;2023-12-04T02:26:21;3.00;99.90
21047;DHT22;10682;50.874;3.656;2023-12-04T02:28:54;3.00;99.90
21047;DHT22;10682;50.874;3.656;2023-12-04T02:31:24;3.00;99.90
21047;DHT22;10682;50.874;3.656;2023-12-04T02:33:55;3.00;99.90
21047;DHT22;10682;50.874;3.656;2023-12-04T02:36:26;3.00;99.90
21047;DHT22;10682;50.874;3.656;2023-12-04T02:38:54;3.00;99.90
21047;DHT22;10682;50.874;3.656;2023-12-04T02:41:21;3.00;99.90
21047;DHT22;10682;50.874;3.656;2023-12-04T02:43:49;3.00;99.90
21047;DHT22;10682;50.874;3.656;2023-12-04T02:46:16;3.00;99.90
21047;DHT22;10682;50.874;3.656;2023-12-04T02:48:43;3.00;99.90
21047;DHT22;10682;50.874;3.656;2023-12-04T02:51:10;3.00;99.90
21047;DHT22;10682;50.874;3.656;2023-12-04T02:53:38;3.00;99.90
21047;DHT22;10682;50.874;3.656;2023-12-04T02:56:05;3.00;99.90
21047;DHT22;10682;50.874;3.656;2023-12-04T02:58:32;3.00;99.90
21047;DHT22;10682;50.874;3.656;2023-12-04T03:01:01;3.00;99.90
21047;DHT22;10682;50.874;3.656;2023-12-04T03:03:28;3.00;99.90
21047;DHT22;10682;50.874;3.656;2023-12-04T03:05:55;3.00;99.90
21047;DHT22;10682;50.874;3.656;2023-12-04T03:08:22;3.00;99.90
21047;DHT22;10682;50.874;3.656;2023-12-04T03:10:49;3.00;99.90
21047;DHT22;10682;50.874;3.656;2023-12-04T03:13:16;3.00;99.90
21047;DHT22;10682;50.874;3.656;2023-12-04T03:15:44;3.10;99.90
21047;DHT22;10682;50.874;3.656;2023-12-04T03:18:11;3.10;99.90
21047;DHT22;10682;50.874;3.656;2023-12-04T03:20:39;3.10;99.90
21047;DHT22;10682;50.874;3.656;2023-12-04T03:23:06;3.20;99.90
21047;DHT22;10682;50.874;3.656;2023-12-04T03:25:33;3.30;99.90
21047;DHT22;10682;50.874;3.656;2023-12-04T03:28:00;3.20;99.90
21047;DHT22;10682;50.874;3.656;2023-12-04T03:30:27;3.30;99.90
21047;DHT22;10682;50.874;3.656;2023-12-04T03:32:55;3.20;99.90
21047;DHT22;10682;50.874;3.656;2023-12-04T03:35:22;3.30;99.90
21047;DHT22;10682;50.874;3.656;2023-12-04T03:37:49;3.20;99.90
21047;DHT22;10682;50.874;3.656;2023-12-04T03:40:19;3.20;99.90
21047;DHT22;10682;50.874;3.656;2023-12-04T03:42:46;3.30;99.90
21047;DHT22;10682;50.874;3.656;2023-12-04T03:45:13;3.30;99.90
21047;DHT22;10682;50.874;3.656;2023-12-04T03:47:40;3.30;99.90
21047;DHT22;10682;50.874;3.656;2023-12-04T03:50:07;3.20;99.90
21047;DHT22;10682;50.874;3.656;2023-12-04T03:52:34;3.30;99.90
21047;DHT22;10682;50.874;3.656;2023-12-04T03:55:01;3.30;99.90
21047;DHT22;10682;50.874;3.656;2023-12-04T03:57:30;3.40;99.90
21047;DHT22;10682;50.874;3.656;2023-12-04T03:59:57;3.40;99.90
21047;DHT22;10682;50.874;3.656;2023-12-04T04:02:24;3.40;99.90
21047;DHT22;10682;50.874;3.656;2023-12-04T04:04:51;3.50;99.90
21047;DHT22;10682;50.874;3.656;2023-12-04T04:07:19;3.50;99.90
21047;DHT22;10682;50.874;3.656;2023-12-04T04:09:46;3.50;99.90
21047;DHT22;10682;50.874;3.656;2023-12-04T04:12:13;3.50;99.90
21047;DHT22;10682;50.874;3.656;2023-12-04T04:14:40;3.50;99.90
21047;DHT22;10682;50.874;3.656;2023-12-04T04:17:07;3.60;99.90
21047;DHT22;10682;50.874;3.656;2023-12-04T04:19:35;3.60;99.90
21047;DHT22;10682;50.874;3.656;2023-12-04T04:22:02;3.70;99.90
21047;DHT22;10682;50.874;3.656;2023-12-04T04:24:29;3.60;99.90
21047;DHT22;10682;50.874;3.656;2023-12-04T04:26:56;3.70;99.90
21047;DHT22;10682;50.874;3.656;2023-12-04T04:29:23;3.70;99.90
21047;DHT22;10682;50.874;3.656;2023-12-04T04:31:51;3.70;99.90
21047;DHT22;10682;50.874;3.656;2023-12-04T04:34:20;3.70;99.90
21047;DHT22;10682;50.874;3.656;2023-12-04T04:36:48;3.70;99.90
21047;DHT22;10682;50.874;3.656;2023-12-04T04:39:15;3.70;99.90
21047;DHT22;10682;50.874;3.656;2023-12-04T04:41:42;3.70;99.90
21047;DHT22;10682;50.874;3.656;2023-12-04T04:44:10;3.70;99.90
21047;DHT22;10682;50.874;3.656;2023-12-04T04:46:37;3.70;99.90
21047;DHT22;10682;50.874;3.656;2023-12-04T04:49:05;3.70;99.90
21047;DHT22;10682;50.874;3.656;2023-12-04T04:51:34;3.70;99.90
21047;DHT22;10682;50.874;3.656;2023-12-04T04:54:01;3.70;99.90
21047;DHT22;10682;50.874;3.656;2023-12-04T04:56:29;3.70;99.90
21047;DHT22;10682;50.874;3.656;2023-12-04T04:58:56;3.80;99.90
21047;DHT22;10682;50.874;3.656;2023-12-04T05:01:24;3.70;99.90
21047;DHT22;10682;50.874;3.656;2023-12-04T05:03:51;3.70;99.90
21047;DHT22;10682;50.874;3.656;2023-12-04T05:06:18;3.70;99.90
21047;DHT22;10682;50.874;3.656;2023-12-04T05:08:46;3.70;99.90
21047;DHT22;10682;50.874;3.656;2023-12-04T05:11:16;3.60;99.90
21047;DHT22;10682;50.874;3.656;2023-12-04T05:13:44;3.60;99.90
21047;DHT22;10682;50.874;3.656;2023-12-04T05:16:12;3.60;99.90
21047;DHT22;10682;50.874;3.656;2023-12-04T05:18:39;3.60;99.90
21047;DHT22;10682;50.874;3.656;2023-12-04T05:21:09;3.60;99.90
21047;DHT22;10682;50.874;3.656;2023-12-04T05:23:40;3.60;99.90
21047;DHT22;10682;50.874;3.656;2023-12-04T05:26:07;3.60;99.90
21047;DHT22;10682;50.874;3.656;2023-12-04T05:28:34;3.60;99.90
21047;DHT22;10682;50.874;3.656;2023-12-04T05:31:02;3.50;99.90
21047;DHT22;10682;50.874;3.656;2023-12-04T05:33:29;3.50;99.90
21047;DHT22;10682;50.874;3.656;2023-12-04T05:35:56;3.60;99.90
21047;DHT22;10682;50.874;3.656;2023-12-04T05:38:23;3.60;99.90
21047;DHT22;10682;50.874;3.656;2023-12-04T05:40:50;3.70;99.90
21047;DHT22;10682;50.874;3.656;2023-12-04T05:43:17;3.70;99.90
21047;DHT22;10682;50.874;3.656;2023-12-04T05:45:45;3.70;99.90
21047;DHT22;10682;50.874;3.656;2023-12-04T05:48:15;3.70;99.90
21047;DHT22;10682;50.874;3.656;2023-12-04T05:50:42;3.70;99.90
21047;DHT22;10682;50.874;3.656;2023-12-04T05:53:09;3.70;99.90
21047;DHT22;10682;50.874;3.656;2023-12-04T05:55:38;3.70;99.90
21047;DHT22;10682;50.874;3.656;2023-12-04T05:58:05;3.70;99.90
21047;DHT22;10682;50.874;3.656;2023-12-04T06:00:32;3.70;99.90
21047;DHT22;10682;50.874;3.656;2023-12-04T06:02:59;3.80;99.90
21047;DHT22;10682;50.874;3.656;2023-12-04T06:05:26;3.70;99.90
21047;DHT22;10682;50.874;3.656;2023-12-04T06:07:54;3.70;99.90
21047;DHT22;10682;50.874;3.656;2023-12-04T06:10:21;3.70;99.90
21047;DHT22;10682;50.874;3.656;2023-12-04T06:12:48;3.70;99.90
21047;DHT22;10682;50.874;3.656;2023-12-04T06:15:15;3.70;99.90
21047;DHT22;10682;50.874;3.656;2023-12-04T06:17:42;3.70;99.90
21047;DHT22;10682;50.874;3.656;2023-12-04T06:20:10;3.70;99.90
21047;DHT22;10682;50.874;3.656;2023-12-04T06:22:38;3.70;99.90
21047;DHT22;10682;50.874;3.656;2023-12-04T06:25:06;3.70;99.90
21047;DHT22;10682;50.874;3.656;2023-12-04T06:27:34;3.70;99.90
21047;DHT22;10682;50.874;3.656;2023-12-04T06:30:02;3.70;99.90
21047;DHT22;10682;50.874;3.656;2023-12-04T06:32:29;3.80;99.90
21047;DHT22;10682;50.874;3.656;2023-12-04T06:34:57;3.80;99.90
21047;DHT22;10682;50.874;3.656;2023-12-04T06:37:24;3.80;99.90
21047;DHT22;10682;50.874;3.656;2023-12-04T06:39:53;3.80;99.90
21047;DHT22;10682;50.874;3.656;2023-12-04T06:42:23;3.70;99.90
21047;DHT22;10682;50.874;3.656;2023-12-04T06:44:50;3.80;99.90
21047;DHT22;10682;50.874;3.656;2023-12-04T06:47:22;3.70;99.90
21047;DHT22;10682;50.874;3.656;2023-12-04T06:49:50;3.70;99.90
21047;DHT22;10682;50.874;3.656;2023-12-04T06:52:17;3.70;99.90
21047;DHT22;10682;50.874;3.656;2023-12-04T06:54:44;3.70;99.90
21047;DHT22;10682;50.874;3.656;2023-12-04T06:57:12;3.70;99.90
21047;DHT22;10682;50.874;3.656;2023-12-04T06:59:44;3.70;99.90
21047;DHT22;10682;50.874;3.656;2023-12-04T07:02:11;3.70;99.90
21047;DHT22;10682;50.874;3.656;2023-12-04T07:04:38;3.70;99.90
21047;DHT22;10682;50.874;3.656;2023-12-04T07:07:06;3.70;99.90
21047;DHT22;10682;50.874;3.656;2023-12-04T07:09:34;3.80;99.90
21047;DHT22;10682;50.874;3.656;2023-12-04T07:12:01;3.80;99.90
21047;DHT22;10682;50.874;3.656;2023-12-04T07:14:29;3.80;99.90
21047;DHT22;10682;50.874;3.656;2023-12-04T07:16:56;3.90;99.90
21047;DHT22;10682;50.874;3.656;2023-12-04T07:19:23;3.90;99.90
21047;DHT22;10682;50.874;3.656;2023-12-04T07:21:51;3.90;99.90
21047;DHT22;10682;50.874;3.656;2023-12-04T07:24:18;3.80;99.90
21047;DHT22;10682;50.874;3.656;2023-12-04T07:26:45;3.80;99.90
21047;DHT22;10682;50.874;3.656;2023-12-04T07:29:12;3.70;99.90
21047;DHT22;10682;50.874;3.656;2023-12-04T07:31:41;3.70;99.90
21047;DHT22;10682;50.874;3.656;2023-12-04T07:34:08;3.70;99.90
21047;DHT22;10682;50.874;3.656;2023-12-04T07:36:35;3.60;99.90
21047;DHT22;10682;50.874;3.656;2023-12-04T07:39:03;3.50;99.90
21047;DHT22;10682;50.874;3.656;2023-12-04T07:41:33;3.40;99.90
21047;DHT22;10682;50.874;3.656;2023-12-04T07:44:00;3.40;99.90
21047;DHT22;10682;50.874;3.656;2023-12-04T07:46:27;3.30;99.90
21047;DHT22;10682;50.874;3.656;2023-12-04T07:48:54;3.30;99.90
21047;DHT22;10682;50.874;3.656;2023-12-04T07:51:22;3.20;99.90
21047;DHT22;10682;50.874;3.656;2023-12-04T07:53:49;3.20;99.90
21047;DHT22;10682;50.874;3.656;2023-12-04T07:56:17;3.10;99.90
21047;DHT22;10682;50.874;3.656;2023-12-04T07:58:44;3.10;99.90
21047;DHT22;10682;50.874;3.656;2023-12-04T08:01:11;3.10;99.90
21047;DHT22;10682;50.874;3.656;2023-12-04T08:03:38;3.10;99.90
21047;DHT22;10682;50.874;3.656;2023-12-04T08:06:06;3.10;99.90
21047;DHT22;10682;50.874;3.656;2023-12-04T08:08:33;3.10;99.90
21047;DHT22;10682;50.874;3.656;2023-12-04T08:11:00;3.10;99.90
21047;DHT22;10682;50.874;3.656;2023-12-04T08:13:27;3.10;99.90
21047;DHT22;10682;50.874;3.656;2023-12-04T08:15:54;3.10;99.90
21047;DHT22;10682;50.874;3.656;2023-12-04T08:18:21;3.20;99.90
21047;DHT22;10682;50.874;3.656;2023-12-04T08:20:48;3.20;99.90
21047;DHT22;10682;50.874;3.656;2023-12-04T08:23:16;3.20;99.90
21047;DHT22;10682;50.874;3.656;2023-12-04T08:25:43;3.20;99.90
21047;DHT22;10682;50.874;3.656;2023-12-04T08:28:10;3.20;99.90
21047;DHT22;10682;50.874;3.656;2023-12-04T08:30:38;3.20;99.90
21047;DHT22;10682;50.874;3.656;2023-12-04T08:33:05;3.20;99.90
21047;DHT22;10682;50.874;3.656;2023-12-04T08:35:33;3.20;99.90
21047;DHT22;10682;50.874;3.656;2023-12-04T08:38:00;3.20;99.90
21047;DHT22;10682;50.874;3.656;2023-12-04T08:40:27;3.20;99.90
21047;DHT22;10682;50.874;3.656;2023-12-04T08:42:54;3.20;99.90
21047;DHT22;10682;50.874;3.656;2023-12-04T08:45:21;3.20;99.90
21047;DHT22;10682;50.874;3.656;2023-12-04T08:47:48;3.10;99.90
21047;DHT22;10682;50.874;3.656;2023-12-04T08:50:16;3.10;99.90
21047;DHT22;10682;50.874;3.656;2023-12-04T08:52:43;3.10;99.90
21047;DHT22;10682;50.874;3.656;2023-12-04T08:55:11;3.10;99.90
21047;DHT22;10682;50.874;3.656;2023-12-04T08:57:38;3.10;99.90
21047;DHT22;10682;50.874;3.656;2023-12-04T09:00:06;3.10;99.90
21047;DHT22;10682;50.874;3.656;2023-12-04T09:02:35;3.10;99.90
21047;DHT22;10682;50.874;3.656;2023-12-04T09:05:12;3.10;99.90
21047;DHT22;10682;50.874;3.656;2023-12-04T09:07:39;3.10;99.90
21047;DHT22;10682;50.874;3.656;2023-12-04T09:10:26;3.10;99.90
21047;DHT22;10682;50.874;3.656;2023-12-04T09:13:15;3.10;99.90
21047;DHT22;10682;50.874;3.656;2023-12-04T09:15:42;3.10;99.90
21047;DHT22;10682;50.874;3.656;2023-12-04T09:18:09;3.10;99.90
21047;DHT22;10682;50.874;3.656;2023-12-04T09:20:36;3.10;99.90
21047;DHT22;10682;50.874;3.656;2023-12-04T09:23:03;3.10;99.90
21047;DHT22;10682;50.874;3.656;2023-12-04T09:25:35;3.10;99.90
21047;DHT22;10682;50.874;3.656;2023-12-04T09:28:03;3.10;99.90
21047;DHT22;10682;50.874;3.656;2023-12-04T09:30:30;3.10;99.90
21047;DHT22;10682;50.874;3.656;2023-12-04T09:32:58;3.00;99.90
21047;DHT22;10682;50.874;3.656;2023-12-04T09:35:25;3.00;99.90
21047;DHT22;10682;50.874;3.656;2023-12-04T09:37:52;3.00;99.90
21047;DHT22;10682;50.874;3.656;2023-12-04T09:40:19;2.90;99.90
21047;DHT22;10682;50.874;3.656;2023-12-04T09:42:46;2.90;99.90
21047;DHT22;10682;50.874;3.656;2023-12-04T09:45:15;2.80;99.90
21047;DHT22;10682;50.874;3.656;2023-12-04T09:47:42;2.80;99.90
21047;DHT22;10682;50.874;3.656;2023-12-04T09:50:10;2.80;99.90
21047;DHT22;10682;50.874;3.656;2023-12-04T09:52:38;2.90;99.90
21047;DHT22;10682;50.874;3.656;2023-12-04T09:55:06;2.90;99.90
21047;DHT22;10682;50.874;3.656;2023-12-04T09:57:34;2.90;99.90
21047;DHT22;10682;50.874;3.656;2023-12-04T10:00:03;2.90;99.90
21047;DHT22;10682;50.874;3.656;2023-12-04T10:02:32;2.90;99.90
21047;DHT22;10682;50.874;3.656;2023-12-04T10:04:59;2.90;99.90
21047;DHT22;10682;50.874;3.656;2023-12-04T10:07:26;3.00;99.90
21047;DHT22;10682;50.874;3.656;2023-12-04T10:09:54;3.00;99.90
21047;DHT22;10682;50.874;3.656;2023-12-04T10:12:21;3.10;99.90
21047;DHT22;10682;50.874;3.656;2023-12-04T10:15:03;3.10;99.90
21047;DHT22;10682;50.874;3.656;2023-12-04T10:17:35;3.10;99.90
21047;DHT22;10682;50.874;3.656;2023-12-04T10:20:11;3.10;99.90
21047;DHT22;10682;50.874;3.656;2023-12-04T10:22:42;3.20;99.90
21047;DHT22;10682;50.874;3.656;2023-12-04T10:25:18;3.10;99.90
21047;DHT22;10682;50.874;3.656;2023-12-04T10:27:46;3.20;99.90
21047;DHT22;10682;50.874;3.656;2023-12-04T10:30:28;3.20;99.90
21047;DHT22;10682;50.874;3.656;2023-12-04T10:32:59;3.20;99.90
21047;DHT22;10682;50.874;3.656;2023-12-04T10:35:29;3.20;99.90
21047;DHT22;10682;50.874;3.656;2023-12-04T10:38:01;3.20;99.90
21047;DHT22;10682;50.874;3.656;2023-12-04T10:40:31;3.20;99.90
21047;DHT22;10682;50.874;3.656;2023-12-04T10:45:37;3.30;99.90
21047;DHT22;10682;50.874;3.656;2023-12-04T10:48:06;3.30;99.90
21047;DHT22;10682;50.874;3.656;2023-12-04T10:50:45;3.40;99.90
21047;DHT22;10682;50.874;3.656;2023-12-04T10:53:15;3.50;99.90
21047;DHT22;10682;50.874;3.656;2023-12-04T10:55:44;3.50;99.90
21047;DHT22;10682;50.874;3.656;2023-12-04T10:58:13;3.50;99.90
21047;DHT22;10682;50.874;3.656;2023-12-04T11:00:48;3.50;99.90
21047;DHT22;10682;50.874;3.656;2023-12-04T11:03:25;3.50;99.90
21047;DHT22;10682;50.874;3.656;2023-12-04T11:05:59;3.60;99.90
21047;DHT22;10682;50.874;3.656;2023-12-04T11:08:33;3.60;99.90
21047;DHT22;10682;50.874;3.656;2023-12-04T11:11:04;3.70;99.90
21047;DHT22;10682;50.874;3.656;2023-12-04T11:13:39;3.70;99.90
21047;DHT22;10682;50.874;3.656;2023-12-04T11:16:40;3.70;99.90
21047;DHT22;10682;50.874;3.656;2023-12-04T11:19:21;3.70;99.90
21047;DHT22;10682;50.874;3.656;2023-12-04T11:21:53;3.80;99.90
21047;DHT22;10682;50.874;3.656;2023-12-04T11:24:26;3.90;99.90
21047;DHT22;10682;50.874;3.656;2023-12-04T11:26:53;3.90;99.90
21047;DHT22;10682;50.874;3.656;2023-12-04T11:29:21;4.00;99.90
21047;DHT22;10682;50.874;3.656;2023-12-04T11:31:49;4.00;99.90
21047;DHT22;10682;50.874;3.656;2023-12-04T11:34:16;4.00;99.90
21047;DHT22;10682;50.874;3.656;2023-12-04T11:36:44;4.00;99.90
21047;DHT22;10682;50.874;3.656;2023-12-04T11:39:12;4.00;99.90
21047;DHT22;10682;50.874;3.656;2023-12-04T11:41:43;4.10;99.90
21047;DHT22;10682;50.874;3.656;2023-12-04T11:44:13;4.10;99.90
21047;DHT22;10682;50.874;3.656;2023-12-04T11:47:04;4.10;99.90
21047;DHT22;10682;50.874;3.656;2023-12-04T11:49:33;4.10;99.90
21047;DHT22;10682;50.874;3.656;2023-12-04T11:52:02;4.20;99.90
21047;DHT22;10682;50.874;3.656;2023-12-04T11:55:04;4.20;99.90
21047;DHT22;10682;50.874;3.656;2023-12-04T11:57:38;4.20;99.90
21047;DHT22;10682;50.874;3.656;2023-12-04T12:05:41;4.30;99.90
21047;DHT22;10682;50.874;3.656;2023-12-04T12:08:09;4.40;99.90
21047;DHT22;10682;50.874;3.656;2023-12-04T12:10:37;4.50;99.90
21047;DHT22;10682;50.874;3.656;2023-12-04T12:13:04;4.60;99.90
21047;DHT22;10682;50.874;3.656;2023-12-04T12:15:33;4.60;99.90
21047;DHT22;10682;50.874;3.656;2023-12-04T12:18:00;4.60;99.90
21047;DHT22;10682;50.874;3.656;2023-12-04T12:20:28;4.60;99.90
21047;DHT22;10682;50.874;3.656;2023-12-04T12:22:55;4.70;99.90
21047;DHT22;10682;50.874;3.656;2023-12-04T12:25:23;4.70;99.90
21047;DHT22;10682;50.874;3.656;2023-12-04T12:27:51;4.70;99.90
21047;DHT22;10682;50.874;3.656;2023-12-04T12:30:19;4.80;99.90
21047;DHT22;10682;50.874;3.656;2023-12-04T12:32:47;4.80;99.90
21047;DHT22;10682;50.874;3.656;2023-12-04T12:35:14;4.70;99.90
21047;DHT22;10682;50.874;3.656;2023-12-04T12:37:41;4.70;99.90
21047;DHT22;10682;50.874;3.656;2023-12-04T12:40:10;4.70;99.90
21047;DHT22;10682;50.874;3.656;2023-12-04T12:42:38;4.70;99.90
21047;DHT22;10682;50.874;3.656;2023-12-04T12:45:11;4.60;99.90
21047;DHT22;10682;50.874;3.656;2023-12-04T12:47:45;4.60;99.90
21047;DHT22;10682;50.874;3.656;2023-12-04T12:50:13;4.60;99.90
21047;DHT22;10682;50.874;3.656;2023-12-04T12:52:42;4.60;99.90
21047;DHT22;10682;50.874;3.656;2023-12-04T12:55:10;4.70;99.90
21047;DHT22;10682;50.874;3.656;2023-12-04T12:57:37;4.70;99.90
21047;DHT22;10682;50.874;3.656;2023-12-04T13:00:06;4.70;99.90
21047;DHT22;10682;50.874;3.656;2023-12-04T13:02:37;4.80;99.90
21047;DHT22;10682;50.874;3.656;2023-12-04T13:05:05;4.80;99.90
21047;DHT22;10682;50.874;3.656;2023-12-04T13:07:39;4.80;99.90
21047;DHT22;10682;50.874;3.656;2023-12-04T13:10:07;4.80;99.90
21047;DHT22;10682;50.874;3.656;2023-12-04T13:12:35;4.80;99.90
21047;DHT22;10682;50.874;3.656;2023-12-04T13:15:03;4.80;99.90
21047;DHT22;10682;50.874;3.656;2023-12-04T13:17:30;4.80;99.90
21047;DHT22;10682;50.874;3.656;2023-12-04T13:19:57;4.90;99.90
21047;DHT22;10682;50.874;3.656;2023-12-04T13:22:26;4.90;99.90
21047;DHT22;10682;50.874;3.656;2023-12-04T13:24:54;4.80;99.90
21047;DHT22;10682;50.874;3.656;2023-12-04T13:27:21;4.80;99.90
21047;DHT22;10682;50.874;3.656;2023-12-04T13:29:48;4.90;99.90
21047;DHT22;10682;50.874;3.656;2023-12-04T13:32:17;4.90;99.90
21047;DHT22;10682;50.874;3.656;2023-12-04T13:34:44;4.90;99.90
21047;DHT22;10682;50.874;3.656;2023-12-04T13:37:11;5.00;99.90
21047;DHT22;10682;50.874;3.656;2023-12-04T13:39:38;4.90;99.90
21047;DHT22;10682;50.874;3.656;2023-12-04T13:42:15;4.90;99.90
21047;DHT22;10682;50.874;3.656;2023-12-04T13:45:01;5.00;99.90
21047;DHT22;10682;50.874;3.656;2023-12-04T13:47:31;5.00;99.90
21047;DHT22;10682;50.874;3.656;2023-12-04T13:49:58;5.00;99.90
21047;DHT22;10682;50.874;3.656;2023-12-04T13:52:25;5.00;99.90
21047;DHT22;10682;50.874;3.656;2023-12-04T13:54:56;4.90;99.90
21047;DHT22;10682;50.874;3.656;2023-12-04T13:57:24;4.90;99.90
21047;DHT22;10682;50.874;3.656;2023-12-04T13:59:55;4.90;99.90
21047;DHT22;10682;50.874;3.656;2023-12-04T14:02:25;4.90;99.90
21047;DHT22;10682;50.874;3.656;2023-12-04T14:04:52;5.00;99.90
21047;DHT22;10682;50.874;3.656;2023-12-04T14:07:20;5.00;99.90
21047;DHT22;10682;50.874;3.656;2023-12-04T14:09:48;5.00;99.90
21047;DHT22;10682;50.874;3.656;2023-12-04T14:12:15;5.00;99.90
21047;DHT22;10682;50.874;3.656;2023-12-04T14:14:43;5.10;99.90
21047;DHT22;10682;50.874;3.656;2023-12-04T14:17:10;5.00;99.90
21047;DHT22;10682;50.874;3.656;2023-12-04T14:19:38;5.10;99.90
21047;DHT22;10682;50.874;3.656;2023-12-04T14:22:06;5.10;99.90
21047;DHT22;10682;50.874;3.656;2023-12-04T14:24:34;5.10;99.90
21047;DHT22;10682;50.874;3.656;2023-12-04T14:27:02;5.10;99.90
21047;DHT22;10682;50.874;3.656;2023-12-04T14:29:30;5.10;99.90
21047;DHT22;10682;50.874;3.656;2023-12-04T14:31:57;5.10;99.90
21047;DHT22;10682;50.874;3.656;2023-12-04T14:34:24;5.10;99.90
21047;DHT22;10682;50.874;3.656;2023-12-04T14:36:51;5.10;99.90
21047;DHT22;10682;50.874;3.656;2023-12-04T14:39:18;5.00;99.90
21047;DHT22;10682;50.874;3.656;2023-12-04T14:41:46;5.00;99.90
21047;DHT22;10682;50.874;3.656;2023-12-04T14:44:13;5.00;99.90
21047;DHT22;10682;50.874;3.656;2023-12-04T14:46:40;5.10;99.90
21047;DHT22;10682;50.874;3.656;2023-12-04T14:49:08;5.10;99.90
21047;DHT22;10682;50.874;3.656;2023-12-04T14:51:35;5.00;99.90
21047;DHT22;10682;50.874;3.656;2023-12-04T14:54:02;5.00;99.90
21047;DHT22;10682;50.874;3.656;2023-12-04T14:56:49;5.00;99.90
21047;DHT22;10682;50.874;3.656;2023-12-04T14:59:34;5.10;99.90
21047;DHT22;10682;50.874;3.656;2023-12-04T15:02:20;5.00;99.90
21047;DHT22;10682;50.874;3.656;2023-12-04T15:04:59;5.00;99.90
21047;DHT22;10682;50.874;3.656;2023-12-04T15:07:36;5.00;99.90
21047;DHT22;10682;50.874;3.656;2023-12-04T15:10:21;5.00;99.90
21047;DHT22;10682;50.874;3.656;2023-12-04T15:13:14;5.10;99.90
21047;DHT22;10682;50.874;3.656;2023-12-04T15:15:56;5.10;99.90
21047;DHT22;10682;50.874;3.656;2023-12-04T15:18:52;5.10;99.90
21047;DHT22;10682;50.874;3.656;2023-12-04T15:21:20;5.10;99.90
21047;DHT22;10682;50.874;3.656;2023-12-04T15:23:49;5.10;99.90
21047;DHT22;10682;50.874;3.656;2023-12-04T15:26:16;5.10;99.90
21047;DHT22;10682;50.874;3.656;2023-12-04T15:28:44;5.10;99.90
21047;DHT22;10682;50.874;3.656;2023-12-04T15:31:13;5.10;99.90
21047;DHT22;10682;50.874;3.656;2023-12-04T15:33:41;5.10;99.90
21047;DHT22;10682;50.874;3.656;2023-12-04T15:36:08;5.10;99.90
21047;DHT22;10682;50.874;3.656;2023-12-04T15:38:37;5.10;99.90
21047;DHT22;10682;50.874;3.656;2023-12-04T15:41:04;5.10;99.90
21047;DHT22;10682;50.874;3.656;2023-12-04T15:43:32;5.10;99.90
21047;DHT22;10682;50.874;3.656;2023-12-04T15:45:59;5.10;99.90
21047;DHT22;10682;50.874;3.656;2023-12-04T15:48:26;5.10;99.90
21047;DHT22;10682;50.874;3.656;2023-12-04T15:50:54;5.10;99.90
21047;DHT22;10682;50.874;3.656;2023-12-04T15:53:21;5.00;99.90
21047;DHT22;10682;50.874;3.656;2023-12-04T15:55:48;5.10;99.90
21047;DHT22;10682;50.874;3.656;2023-12-04T15:58:15;5.10;99.90
21047;DHT22;10682;50.874;3.656;2023-12-04T16:00:43;5.10;99.90
21047;DHT22;10682;50.874;3.656;2023-12-04T16:03:11;5.10;99.90